createdAt,value
2018-09-20T00:01:03.147Z,16.00
2018-09-20T00:03:34.382Z,15.67
2018-09-20T00:06:04.372Z,16.33
2018-09-20T00:08:33.779Z,16.00
2018-09-20T00:11:04.407Z,19.33
2018-09-20T00:13:33.855Z,16.00
2018-09-20T00:16:03.519Z,16.00
2018-09-20T00:18:33.198Z,18.00
2018-09-20T00:21:04.589Z,16.00
2018-09-20T00:23:34.488Z,19.00
2018-09-20T00:26:04.655Z,17.00
2018-09-20T00:28:36.435Z,17.00
2018-09-20T00:31:07.238Z,17.00
2018-09-20T00:33:37.930Z,16.00
2018-09-20T00:36:07.407Z,17.67
2018-09-20T00:38:36.802Z,14.00
2018-09-20T00:41:06.261Z,16.33
2018-09-20T00:43:36.229Z,17.00
2018-09-20T00:46:07.762Z,18.67
2018-09-20T00:48:37.129Z,18.00
2018-09-20T00:51:07.017Z,18.33
2018-09-20T00:53:36.841Z,17.67
2018-09-20T00:56:06.859Z,15.00
2018-09-20T00:58:36.219Z,18.00
2018-09-20T01:01:05.660Z,20.33
2018-09-20T01:03:35.181Z,19.00
2018-09-20T01:06:04.643Z,18.00
2018-09-20T01:08:34.062Z,17.33
2018-09-20T01:11:03.591Z,17.67
2018-09-20T01:13:32.987Z,16.67
2018-09-20T01:16:02.429Z,20.67
2018-09-20T01:18:31.817Z,15.00
2018-09-20T01:21:06.127Z,19.33
2018-09-20T01:23:36.870Z,16.67
2018-09-20T01:26:06.249Z,15.67
2018-09-20T01:28:35.622Z,15.00
2018-09-20T01:31:05.461Z,19.00
2018-09-20T01:33:34.870Z,18.00
2018-09-20T01:36:04.392Z,19.67
2018-09-20T01:38:33.733Z,18.00
2018-09-20T01:43:53.573Z,18.00
2018-09-20T01:46:24.726Z,19.67
2018-09-20T01:48:55.349Z,19.33
2018-09-20T01:51:26.964Z,16.67
2018-09-20T01:53:58.726Z,20.00
2018-09-20T01:56:29.890Z,16.33
2018-09-20T01:59:00.420Z,19.67
2018-09-20T02:01:30.351Z,16.00
2018-09-20T02:04:02.676Z,18.00
2018-09-20T02:06:33.121Z,19.67
2018-09-20T02:09:05.984Z,18.00
2018-09-20T02:11:39.948Z,16.00
2018-09-20T02:14:10.042Z,17.33
2018-09-20T02:16:39.647Z,17.00
2018-09-20T02:19:10.667Z,17.67
2018-09-20T02:21:41.235Z,20.33
2018-09-20T02:24:12.383Z,19.67
2018-09-20T02:26:43.308Z,14.67
2018-09-20T02:29:13.690Z,15.67
2018-09-20T02:31:43.915Z,19.00
2018-09-20T02:34:16.744Z,18.67
2018-09-20T02:36:46.620Z,17.67
2018-09-20T02:39:16.907Z,15.67
2018-09-20T02:41:47.761Z,17.00
2018-09-20T02:44:20.319Z,15.67
2018-09-20T02:46:50.449Z,17.00
2018-09-20T02:49:21.030Z,17.67
2018-09-20T02:51:53.302Z,15.67
2018-09-20T02:54:25.577Z,15.00
2018-09-20T02:56:55.322Z,14.00
2018-09-20T02:59:26.972Z,14.67
2018-09-20T03:01:58.567Z,15.00
2018-09-20T03:04:30.207Z,15.00
2018-09-20T03:06:59.662Z,14.00
2018-09-20T03:09:31.243Z,14.00
2018-09-20T03:12:07.724Z,14.33
2018-09-20T03:14:39.280Z,13.67
2018-09-20T03:17:10.874Z,14.00
2018-09-20T03:19:40.439Z,14.33
2018-09-20T03:22:12.647Z,13.00
2018-09-20T03:24:43.074Z,13.67
2018-09-20T03:27:12.676Z,14.67
2018-09-20T03:29:44.291Z,15.00
2018-09-20T03:32:14.770Z,13.33
2018-09-20T03:34:45.712Z,17.67
2018-09-20T03:37:18.165Z,18.00
2018-09-20T03:39:53.569Z,14.33
2018-09-20T03:42:25.596Z,13.00
2018-09-20T03:44:56.803Z,14.00
2018-09-20T03:47:29.172Z,14.00
2018-09-20T03:49:59.568Z,14.33
2018-09-20T03:52:32.909Z,16.67
2018-09-20T03:55:03.692Z,15.00
2018-09-20T03:57:38.509Z,15.67
2018-09-20T04:00:13.890Z,13.67
2018-09-20T04:02:44.054Z,13.00
2018-09-20T04:05:18.581Z,14.33
2018-09-20T04:07:52.109Z,16.00
2018-09-20T04:10:22.397Z,16.33
2018-09-20T04:12:54.778Z,16.67
2018-09-20T04:15:28.106Z,16.33
2018-09-20T04:17:57.811Z,14.00
2018-09-20T04:20:32.112Z,16.00
2018-09-20T04:23:08.252Z,15.00
2018-09-20T04:25:38.064Z,14.00
2018-09-20T04:28:08.657Z,16.33
2018-09-20T04:30:43.376Z,17.33
2018-09-20T04:33:16.139Z,15.67
2018-09-20T04:35:49.733Z,15.67
2018-09-20T04:38:20.917Z,16.00
2018-09-20T04:40:51.119Z,14.00
2018-09-20T04:43:22.821Z,17.33
2018-09-20T04:46:00.948Z,14.00
2018-09-20T04:48:36.851Z,17.00
2018-09-20T04:51:16.474Z,14.00
2018-09-20T04:53:54.420Z,14.00
2018-09-20T04:56:43.007Z,16.00
2018-09-20T04:59:25.162Z,15.00
2018-09-20T05:02:03.206Z,15.00
2018-09-20T05:04:41.257Z,16.00
2018-09-20T05:07:32.745Z,14.33
2018-09-20T05:10:08.539Z,13.67
2018-09-20T05:12:41.945Z,14.00
2018-09-20T05:18:30.866Z,15.00
2018-09-20T05:21:08.605Z,18.00
2018-09-20T05:23:46.863Z,14.33
2018-09-20T05:26:26.900Z,17.00
2018-09-20T05:29:04.479Z,17.67
2018-09-20T05:31:37.865Z,16.00
2018-09-20T05:34:08.374Z,16.67
2018-09-20T05:36:39.270Z,14.00
2018-09-20T05:42:24.074Z,17.33
2018-09-20T05:44:54.661Z,14.33
2018-09-20T05:47:24.751Z,18.33
2018-09-20T05:49:55.412Z,15.00
2018-09-20T05:52:24.792Z,16.67
2018-09-20T05:54:54.778Z,19.00
2018-09-20T05:57:24.383Z,18.67
2018-09-20T05:59:55.469Z,21.67
2018-09-20T06:02:30.509Z,21.00
2018-09-20T06:05:00.634Z,18.67
2018-09-20T06:07:30.686Z,18.00
2018-09-20T06:10:04.653Z,22.67
2018-09-20T06:12:34.491Z,21.33
2018-09-20T06:15:03.941Z,22.00
2018-09-20T06:17:34.448Z,19.33
2018-09-20T06:20:04.285Z,18.33
2018-09-20T06:22:34.385Z,21.67
2018-09-20T06:25:07.702Z,20.67
2018-09-20T06:27:38.441Z,20.67
2018-09-20T06:30:11.656Z,21.67
2018-09-20T06:32:42.540Z,24.33
2018-09-20T06:35:12.526Z,23.33
2018-09-20T06:37:43.973Z,21.33
2018-09-20T06:40:14.471Z,22.33
2018-09-20T06:42:49.238Z,20.00
2018-09-20T06:45:24.640Z,18.67
2018-09-20T06:47:55.430Z,19.00
2018-09-20T06:50:25.513Z,19.00
2018-09-20T06:52:55.841Z,18.00
2018-09-20T06:55:26.758Z,19.00
2018-09-20T06:57:58.182Z,20.00
2018-09-20T07:00:30.201Z,21.67
2018-09-20T07:03:03.172Z,19.67
2018-09-20T07:05:34.806Z,19.00
2018-09-20T07:10:43.498Z,18.00
2018-09-20T07:13:18.608Z,19.33
2018-09-20T07:15:51.821Z,15.33
2018-09-20T07:18:22.290Z,17.67
2018-09-20T07:20:51.705Z,17.67
2018-09-20T07:23:24.557Z,19.00
2018-09-20T07:25:56.088Z,16.67
2018-09-20T07:28:27.430Z,18.00
2018-09-20T07:31:00.252Z,19.67
2018-09-20T07:33:31.396Z,20.67
2018-09-20T07:36:04.002Z,22.67
2018-09-20T07:38:36.073Z,22.67
2018-09-20T07:41:06.571Z,20.00
2018-09-20T07:43:36.774Z,19.00
2018-09-20T07:46:07.309Z,16.33
2018-09-20T07:48:37.505Z,19.00
2018-09-20T07:51:09.486Z,15.33
2018-09-20T07:53:39.468Z,16.33
2018-09-20T07:56:10.523Z,18.33
2018-09-20T07:58:39.937Z,16.00
2018-09-20T08:01:09.485Z,15.67
2018-09-20T08:03:39.406Z,16.33
2018-09-20T08:06:11.905Z,17.67
2018-09-20T08:08:43.755Z,13.67
2018-09-20T08:11:18.690Z,15.67
2018-09-20T08:13:53.952Z,16.33
2018-09-20T08:16:24.811Z,15.00
2018-09-20T08:18:56.504Z,15.67
2018-09-20T08:21:30.312Z,15.67
2018-09-20T08:24:00.549Z,14.33
2018-09-20T08:26:31.795Z,15.00
2018-09-20T08:29:07.487Z,13.33
2018-09-20T08:31:37.682Z,13.67
2018-09-20T08:34:09.854Z,11.33
2018-09-20T08:36:40.669Z,12.60
2018-09-20T08:39:11.709Z,13.33
2018-09-20T08:41:42.712Z,11.00
2018-09-20T08:44:13.739Z,12.00
2018-09-20T08:46:44.087Z,11.33
2018-09-20T08:49:13.646Z,12.67
2018-09-20T08:51:43.144Z,11.00
2018-09-20T08:54:14.950Z,11.00
2018-09-20T08:56:44.930Z,11.67
2018-09-20T08:59:17.051Z,11.75
2018-09-20T09:01:46.518Z,11.00
2018-09-20T09:04:20.313Z,10.67
2018-09-20T09:06:49.858Z,10.67
2018-09-20T09:09:21.608Z,12.33
2018-09-20T09:11:52.525Z,12.00
2018-09-20T09:14:23.230Z,12.33
2018-09-20T09:16:54.095Z,10.33
2018-09-20T09:19:24.678Z,12.00
2018-09-20T09:21:54.770Z,13.33
2018-09-20T09:24:25.639Z,11.00
2018-09-20T09:26:56.149Z,11.67
2018-09-20T09:29:27.865Z,13.00
2018-09-20T09:31:57.284Z,12.00
2018-09-20T09:34:27.962Z,12.00
2018-09-20T09:37:02.883Z,12.67
2018-09-20T09:39:33.379Z,13.00
2018-09-20T09:42:02.804Z,13.67
2018-09-20T09:44:34.219Z,13.33
2018-09-20T09:47:08.413Z,12.67
2018-09-20T09:49:38.502Z,11.00
2018-09-20T09:52:08.895Z,9.67
2018-09-20T09:54:41.928Z,11.67
2018-09-20T09:57:13.444Z,11.33
2018-09-20T09:59:43.758Z,12.00
2018-09-20T10:02:16.113Z,12.00
2018-09-20T10:04:46.446Z,13.00
2018-09-20T10:07:17.490Z,12.00
2018-09-20T10:09:49.225Z,13.00
2018-09-20T10:12:18.585Z,10.33
2018-09-20T10:14:48.999Z,14.00
2018-09-20T10:17:19.997Z,12.67
2018-09-20T10:19:49.327Z,12.00
2018-09-20T10:22:22.932Z,12.00
2018-09-20T10:24:53.199Z,13.33
2018-09-20T10:27:26.152Z,13.67
2018-09-20T10:29:57.405Z,12.00
2018-09-20T10:32:28.644Z,14.00
2018-09-20T10:35:00.052Z,10.00
2018-09-20T10:37:31.549Z,11.00
2018-09-20T10:40:04.751Z,10.50
2018-09-20T10:42:35.510Z,10.00
2018-09-20T10:45:14.630Z,10.00
2018-09-20T10:47:46.427Z,11.60
2018-09-20T10:50:17.809Z,9.33
2018-09-20T10:52:48.599Z,12.33
2018-09-20T10:55:20.830Z,12.33
2018-09-20T10:57:51.350Z,12.00
2018-09-20T11:00:24.221Z,10.00
2018-09-20T11:02:56.635Z,11.33
2018-09-20T11:05:27.147Z,12.00
2018-09-20T11:07:58.249Z,10.25
2018-09-20T11:10:29.887Z,11.00
2018-09-20T11:13:01.913Z,9.67
2018-09-20T11:15:34.188Z,9.00
2018-09-20T11:18:05.280Z,11.25
2018-09-20T11:20:35.597Z,11.00
2018-09-20T11:23:12.649Z,10.00
2018-09-20T11:25:43.793Z,9.00
2018-09-20T11:28:14.519Z,10.33
2018-09-20T11:30:47.045Z,9.00
2018-09-20T11:33:17.915Z,9.67
2018-09-20T11:35:48.618Z,10.00
2018-09-20T11:38:20.103Z,9.67
2018-09-20T11:40:51.236Z,8.67
2018-09-20T11:43:22.069Z,11.00
2018-09-20T11:45:52.295Z,8.67
2018-09-20T11:48:24.221Z,10.00
2018-09-20T11:50:55.362Z,8.00
2018-09-20T11:53:28.762Z,9.33
2018-09-20T11:56:00.358Z,9.40
2018-09-20T11:58:32.289Z,10.40
2018-09-20T12:01:03.317Z,11.00
2018-09-20T12:03:34.460Z,9.00
2018-09-20T12:06:04.780Z,9.33
2018-09-20T12:08:37.414Z,10.20
2018-09-20T12:11:08.637Z,9.67
2018-09-20T12:13:47.265Z,11.00
2018-09-20T12:16:19.740Z,8.20
2018-09-20T12:21:29.412Z,8.80
2018-09-20T12:24:05.524Z,9.33
2018-09-20T12:26:36.301Z,9.00
2018-09-20T12:29:06.622Z,8.00
2018-09-20T12:31:40.647Z,9.00
2018-09-20T12:34:12.472Z,8.67
2018-09-20T12:36:48.636Z,10.00
2018-09-20T12:39:22.521Z,9.60
2018-09-20T12:41:58.760Z,7.00
2018-09-20T12:44:38.218Z,8.00
2018-09-20T12:47:17.069Z,9.00
2018-09-20T12:49:53.176Z,8.00
2018-09-20T12:52:27.261Z,7.67
2018-09-20T12:55:01.693Z,8.33
2018-09-20T12:57:33.236Z,7.67
2018-09-20T13:00:06.742Z,8.67
2018-09-20T13:02:38.480Z,9.33
2018-09-20T13:07:48.215Z,6.40
2018-09-20T13:10:26.798Z,8.00
2018-09-20T13:13:04.371Z,8.00
2018-09-20T13:15:36.478Z,6.33
2018-09-20T13:18:07.512Z,8.67
2018-09-20T13:20:39.233Z,9.00
2018-09-20T13:23:10.504Z,9.33
2018-09-20T13:25:42.556Z,9.00
2018-09-20T13:28:14.423Z,9.40
2018-09-20T13:30:46.008Z,8.80
2018-09-20T13:33:19.091Z,8.00
2018-09-20T13:35:50.818Z,6.67
2018-09-20T13:38:22.494Z,6.00
2018-09-20T13:40:54.802Z,8.67
2018-09-20T13:43:26.326Z,9.67
2018-09-20T13:45:58.613Z,9.00
2018-09-20T13:48:29.458Z,11.67
2018-09-20T13:50:59.822Z,8.67
2018-09-20T13:53:30.178Z,9.00
2018-09-20T13:56:00.447Z,9.00
2018-09-20T13:58:32.305Z,8.33
2018-09-20T14:01:03.428Z,8.60
2018-09-20T14:03:37.554Z,10.00
2018-09-20T14:06:08.657Z,8.00
2018-09-20T14:08:40.659Z,7.20
2018-09-20T14:11:14.677Z,10.50
2018-09-20T14:13:47.203Z,10.75
2018-09-20T14:16:20.766Z,10.33
2018-09-20T14:18:54.401Z,9.75
2018-09-20T14:21:26.351Z,10.67
2018-09-20T14:24:00.260Z,9.67
2018-09-20T14:26:30.565Z,10.67
2018-09-20T14:29:01.748Z,10.00
2018-09-20T14:31:32.559Z,11.00
2018-09-20T14:34:02.831Z,10.67
2018-09-20T14:36:38.284Z,10.67
2018-09-20T14:39:10.316Z,10.00
2018-09-20T14:41:41.507Z,11.00
2018-09-20T14:44:14.851Z,10.33
2018-09-20T14:46:48.149Z,10.00
2018-09-20T14:49:19.411Z,9.00
2018-09-20T14:51:49.609Z,10.67
2018-09-20T14:54:20.771Z,9.00
2018-09-20T14:56:52.053Z,12.00
2018-09-20T14:59:22.331Z,11.67
2018-09-20T15:01:52.485Z,9.33
2018-09-20T15:04:24.053Z,10.00
2018-09-20T15:06:54.925Z,9.33
2018-09-20T15:09:27.062Z,10.60
2018-09-20T15:11:58.533Z,10.67
2018-09-20T15:14:29.838Z,9.00
2018-09-20T15:17:00.806Z,9.00
2018-09-20T15:19:33.262Z,9.67
2018-09-20T15:22:05.276Z,11.50
2018-09-20T15:24:36.016Z,11.67
2018-09-20T15:27:08.229Z,9.00
2018-09-20T15:29:40.928Z,10.00
2018-09-20T15:32:15.672Z,10.50
2018-09-20T15:34:49.649Z,11.00
2018-09-20T15:37:23.280Z,10.00
2018-09-20T15:40:04.349Z,11.67
2018-09-20T15:42:34.770Z,10.33
2018-09-20T15:45:09.897Z,10.33
2018-09-20T15:47:41.375Z,11.00
2018-09-20T15:50:14.122Z,11.75
2018-09-20T15:52:44.553Z,10.33
2018-09-20T15:55:18.553Z,8.00
2018-09-20T15:57:50.449Z,10.00
2018-09-20T16:00:25.483Z,9.75
2018-09-20T16:02:58.742Z,11.60
2018-09-20T16:05:29.593Z,10.33
2018-09-20T16:08:01.067Z,12.00
2018-09-20T16:10:32.683Z,11.00
2018-09-20T16:13:06.150Z,11.67
2018-09-20T16:15:36.363Z,10.67
2018-09-20T16:18:07.082Z,11.67
2018-09-20T16:20:39.948Z,8.33
2018-09-20T16:23:10.097Z,9.33
2018-09-20T16:25:42.484Z,10.33
2018-09-20T16:28:28.114Z,8.80
2018-09-20T16:31:23.026Z,10.00
2018-09-20T16:36:06.276Z,12.00
2018-09-20T16:38:46.600Z,10.00
2018-09-20T16:41:18.924Z,11.00
2018-09-20T16:43:49.457Z,11.00
2018-09-20T16:46:19.739Z,12.00
2018-09-20T16:48:50.650Z,10.00
2018-09-20T16:51:22.077Z,11.67
2018-09-20T16:53:53.235Z,12.00
2018-09-20T16:56:23.436Z,12.67
2018-09-20T16:58:54.722Z,11.00
2018-09-20T17:01:25.219Z,12.00
2018-09-20T17:03:56.297Z,10.75
2018-09-20T17:06:27.417Z,12.33
2018-09-20T17:09:00.702Z,11.00
2018-09-20T17:11:32.597Z,11.67
2018-09-20T17:14:02.860Z,12.00
2018-09-20T17:16:33.385Z,14.00
2018-09-20T17:19:05.850Z,14.00
2018-09-20T17:21:36.605Z,12.00
2018-09-20T17:24:08.282Z,11.67
2018-09-20T17:26:39.904Z,11.67
2018-09-20T17:29:11.066Z,10.67
2018-09-20T17:31:42.502Z,12.00
2018-09-20T17:34:13.523Z,12.67
2018-09-20T17:36:45.117Z,11.00
2018-09-20T17:39:23.882Z,12.00
2018-09-20T17:41:54.898Z,11.33
2018-09-20T17:44:26.434Z,12.00
2018-09-20T17:47:01.225Z,12.00
2018-09-20T17:49:34.809Z,13.33
2018-09-20T17:52:10.282Z,10.00
2018-09-20T17:54:40.940Z,12.00
2018-09-20T17:57:11.652Z,11.00
2018-09-20T17:59:40.945Z,13.00
2018-09-20T18:02:13.122Z,11.67
2018-09-20T18:04:42.880Z,11.67
2018-09-20T18:07:16.214Z,12.00
2018-09-20T18:09:47.032Z,13.00
2018-09-20T18:12:19.248Z,14.00
2018-09-20T18:14:50.110Z,12.00
2018-09-20T18:17:24.754Z,10.67
2018-09-20T18:19:55.938Z,12.33
2018-09-20T18:22:27.479Z,13.33
2018-09-20T18:24:58.495Z,12.00
2018-09-20T18:27:28.807Z,14.00
2018-09-20T18:32:26.444Z,13.33
2018-09-20T18:34:57.624Z,17.00
2018-09-20T18:37:28.688Z,12.33
2018-09-20T18:40:00.341Z,11.67
2018-09-20T18:42:30.825Z,13.67
2018-09-20T18:45:02.091Z,15.33
2018-09-20T18:47:32.427Z,13.67
2018-09-20T18:50:04.545Z,14.00
2018-09-20T18:52:35.610Z,14.00
2018-09-20T18:55:08.202Z,17.00
2018-09-20T18:57:39.669Z,14.00
2018-09-20T19:00:09.894Z,15.33
2018-09-20T19:02:41.238Z,14.00
2018-09-20T19:05:12.190Z,15.67
2018-09-20T19:07:43.290Z,16.00
2018-09-20T19:10:17.465Z,14.00
2018-09-20T19:12:48.880Z,15.00
2018-09-20T19:15:22.206Z,13.33
2018-09-20T19:17:53.358Z,13.00
2018-09-20T19:20:24.267Z,15.33
2018-09-20T19:22:54.692Z,14.33
2018-09-20T19:25:27.761Z,14.67
2018-09-20T19:27:58.907Z,13.00
2018-09-20T19:30:30.448Z,14.67
2018-09-20T19:33:03.138Z,14.00
2018-09-20T19:35:33.449Z,12.67
2018-09-20T19:38:07.138Z,12.67
2018-09-20T19:40:36.475Z,12.33
2018-09-20T19:43:07.415Z,14.00
2018-09-20T19:45:37.286Z,15.00
2018-09-20T19:48:08.225Z,13.67
2018-09-20T19:50:38.325Z,13.00
2018-09-20T19:53:09.848Z,14.33
2018-09-20T19:55:41.029Z,15.00
2018-09-20T19:58:11.841Z,13.00
2018-09-20T20:00:42.495Z,13.33
2018-09-20T20:03:12.753Z,16.00
2018-09-20T20:05:44.856Z,15.67
2018-09-20T20:08:14.654Z,15.67
2018-09-20T20:10:46.342Z,15.00
2018-09-20T20:13:21.040Z,14.33
2018-09-20T20:15:52.138Z,14.00
2018-09-20T20:18:23.624Z,16.00
2018-09-20T20:20:57.853Z,14.00
2018-09-20T20:23:29.442Z,16.00
2018-09-20T20:26:01.108Z,15.67
2018-09-20T20:28:33.459Z,15.00
2018-09-20T20:31:07.946Z,15.33
2018-09-20T20:36:16.298Z,17.17
2018-09-20T20:38:48.055Z,18.00
2018-09-20T20:41:20.890Z,16.67
2018-09-20T20:43:56.681Z,17.00
2018-09-20T20:46:28.398Z,14.33
2018-09-20T20:48:58.789Z,16.33
2018-09-20T20:51:28.160Z,13.00
2018-09-20T20:53:58.451Z,14.00
2018-09-20T20:56:29.246Z,16.00
2018-09-20T20:59:00.202Z,15.00
2018-09-20T21:01:30.219Z,16.67
2018-09-20T21:04:00.631Z,17.00
2018-09-20T21:06:32.650Z,15.67
2018-09-20T21:09:03.298Z,17.00
2018-09-20T21:11:39.789Z,15.67
2018-09-20T21:14:16.965Z,17.00
2018-09-20T21:16:53.681Z,12.00
2018-09-20T21:19:26.166Z,16.33
2018-09-20T21:21:56.466Z,17.33
2018-09-20T21:24:27.012Z,17.67
2018-09-20T21:26:56.429Z,16.33
2018-09-20T21:29:27.238Z,17.00
2018-09-20T21:31:58.030Z,14.67
2018-09-20T21:37:03.853Z,13.67
2018-09-20T21:39:35.695Z,14.67
2018-09-20T21:42:05.990Z,14.67
2018-09-20T21:44:41.421Z,15.67
2018-09-20T21:47:10.868Z,14.33
2018-09-20T21:49:41.945Z,14.00
2018-09-20T21:52:13.881Z,14.33
2018-09-20T21:54:43.232Z,13.67
2018-09-20T21:57:13.292Z,15.00
2018-09-20T21:59:43.278Z,14.67
2018-09-20T22:02:12.662Z,16.00
2018-09-20T22:04:43.074Z,15.00
2018-09-20T22:07:13.693Z,16.00
2018-09-20T22:09:44.786Z,16.67
2018-09-20T22:12:14.241Z,12.00
2018-09-20T22:14:43.581Z,14.67
2018-09-20T22:17:12.966Z,15.00
2018-09-20T22:19:42.629Z,15.00
2018-09-20T22:22:12.574Z,14.67
2018-09-20T22:24:43.205Z,17.00
2018-09-20T22:27:12.665Z,16.00
2018-09-20T22:29:42.021Z,16.00
2018-09-20T22:32:11.420Z,16.00
2018-09-20T22:34:43.412Z,16.00
2018-09-20T22:37:15.018Z,16.33
2018-09-20T22:39:44.382Z,15.33
2018-09-20T22:42:13.769Z,15.33
2018-09-20T22:44:43.178Z,14.33
2018-09-20T22:47:12.859Z,16.00
2018-09-20T22:49:42.578Z,15.33
2018-09-20T22:52:14.933Z,17.00
2018-09-20T22:54:45.386Z,16.00
2018-09-20T22:57:16.199Z,15.67
2018-09-20T22:59:47.107Z,16.33
2018-09-20T23:02:17.869Z,14.33
2018-09-20T23:04:47.214Z,17.00
2018-09-20T23:07:16.915Z,13.33
2018-09-20T23:09:46.501Z,14.67
2018-09-20T23:12:16.627Z,15.00
2018-09-20T23:14:47.567Z,17.00
2018-09-20T23:17:17.000Z,16.33
2018-09-20T23:19:46.361Z,17.00
2018-09-20T23:22:15.946Z,14.00
2018-09-20T23:24:46.381Z,13.67
2018-09-20T23:27:16.762Z,18.33
2018-09-20T23:29:48.221Z,17.00
2018-09-20T23:32:20.214Z,16.67
2018-09-20T23:34:52.148Z,14.00
2018-09-20T23:37:21.687Z,16.00
2018-09-20T23:39:52.709Z,14.00
2018-09-20T23:42:22.742Z,17.00
2018-09-20T23:44:52.153Z,15.67
2018-09-20T23:47:27.252Z,16.00
2018-09-20T23:49:56.690Z,17.00
2018-09-20T23:52:26.177Z,17.00
2018-09-20T23:54:56.020Z,17.00
2018-09-20T23:57:26.188Z,16.00
2018-09-20T23:59:55.636Z,17.00
